^^

..:: Storico WU ::..




Lo storico viene creato da WUnderground con i dati che la stazione Meteomincio invia al loro server. L' aggiornamento viene fatto ogni 5 minuti circa, tuttavia possono esserci intervalli pi¨ ampi a causa di errori, interruzioni di servizio o problemi nell' invio tramite FTP.


Storico stazione MeteoMincio
Giorno Sommario per Dicembre 15, 2022 Unità:  Inglese    Metrico   Entrambi
Giorno Settimana Mese Anno
  Max: Min: Media:
Temperatura: 41.5 °F 38.1 °F 39.4 °F
Dew Point: 38.7 °F 35.2 °F 37.2 °F
Umidità: 96% 87.1% 92%
Velocità vento: 10mph 0.3mph 4mph
Raffica: 16.1mph - -
Direzione- - South
Pressione: 29.8 in 29.6 in -
Precipitazioni: 0.76 in    
 
 
Tabulato Dati per Dicembre 15, 2022
Ora Temperatura Dew Point Pressione Direzione Velocità vento Raffica Umidità Intensità pioggia (oraria) Info solare Situazione
00:04 38.5 °F 36.1 °F 29.7 in West 3.7 mph 6 mph 91% 0 in 0 W/m2
00:09 38.7 °F 36.1 °F 29.7 in West 3.8 mph 6 mph 91% 0 in 0 W/m2
00:14 38.7 °F 36.1 °F 29.7 in WSW 3.4 mph 5 mph 91% 0 in 0 W/m2
00:19 38.7 °F 36.1 °F 29.7 in West 4 mph 8 mph 91% 0 in 0 W/m2
00:24 38.7 °F 36.1 °F 29.7 in West 5.1 mph 8.1 mph 91% 0 in 0 W/m2
00:29 38.7 °F 36.1 °F 29.7 in West 4.9 mph 8.1 mph 91% 0 in 0 W/m2
00:34 38.7 °F 36.3 °F 29.7 in West 4 mph 8 mph 91% 0 in 0 W/m2
00:39 38.7 °F 36.3 °F 29.7 in West 4.9 mph 9.2 mph 91% 0 in 0 W/m2
00:44 38.7 °F 36.3 °F 29.7 in West 5.1 mph 9.2 mph 91% 0 in 0 W/m2
00:49 38.7 °F 36.1 °F 29.7 in WNW 5.2 mph 9 mph 90.2% 0 in 0 W/m2
00:54 38.7 °F 36 °F 29.7 in WNW 5 mph 10.4 mph 90% 0 in 0 W/m2
00:59 38.7 °F 36 °F 29.7 in WNW 4.4 mph 10 mph 90% 0 in 0 W/m2
01:04 38.7 °F 36 °F 29.7 in WNW 4.9 mph 7 mph 90% 0 in 0 W/m2
01:09 38.7 °F 36 °F 29.7 in West 4.3 mph 7 mph 90% 0 in 0 W/m2
01:14 38.7 °F 35.8 °F 29.7 in West 3.4 mph 6 mph 89.4% 0 in 0 W/m2
01:19 38.7 °F 35.8 °F 29.7 in West 3 mph 6 mph 89% 0 in 0 W/m2
01:24 38.7 °F 35.8 °F 29.7 in West 3.5 mph 6 mph 89% 0 in 0 W/m2
01:29 38.7 °F 35.8 °F 29.7 in West 3.4 mph 5 mph 89% 0 in 0 W/m2
01:34 38.7 °F 35.8 °F 29.7 in West 3.7 mph 7 mph 89% 0 in 0 W/m2
01:39 38.7 °F 35.8 °F 29.7 in West 4.2 mph 7 mph 89% 0 in 0 W/m2
01:44 38.7 °F 35.8 °F 29.7 in West 3.5 mph 7 mph 89% 0 in 0 W/m2
01:49 38.7 °F 35.6 °F 29.7 in West 4 mph 7 mph 89% 0 in 0 W/m2
01:54 38.7 °F 35.6 °F 29.7 in WNW 4.4 mph 7 mph 89% 0 in 0 W/m2
01:59 38.7 °F 35.6 °F 29.7 in WNW 4.7 mph 7 mph 89% 0 in 0 W/m2
02:04 38.7 °F 35.6 °F 29.7 in WNW 4.5 mph 7 mph 89% 0 in 0 W/m2
02:09 38.5 °F 35.6 °F 29.7 in WNW 4.5 mph 7 mph 89% 0 in 0 W/m2
02:14 38.5 °F 35.6 °F 29.7 in WNW 3.7 mph 6 mph 89% 0 in 0 W/m2
02:19 38.5 °F 35.4 °F 29.7 in WNW 3.4 mph 6 mph 89% 0 in 0 W/m2
02:24 38.5 °F 35.4 °F 29.7 in WNW 3.1 mph 5 mph 89% 0 in 0 W/m2
02:29 38.5 °F 35.4 °F 29.7 in West 3.2 mph 6 mph 89% 0 in 0 W/m2
02:34 38.5 °F 35.4 °F 29.7 in West 2.4 mph 6 mph 89% 0 in 0 W/m2
02:39 38.3 °F 35.4 °F 29.7 in West 1.9 mph 4 mph 89% 0 in 0 W/m2
02:44 38.3 °F 35.4 °F 29.7 in West 2.4 mph 3.5 mph 89% 0 in 0 W/m2
02:49 38.3 °F 35.4 °F 29.7 in West 1.7 mph 3.5 mph 89% 0 in 0 W/m2
02:54 38.3 °F 35.2 °F 29.7 in West 1.2 mph 3 mph 89% 0 in 0 W/m2
02:59 38.3 °F 35.2 °F 29.7 in WSW 1.8 mph 3.5 mph 89% 0 in 0 W/m2
03:04 38.3 °F 35.4 °F 29.7 in WSW 2.7 mph 4 mph 89.1% 0 in 0 W/m2
03:09 38.3 °F 35.6 °F 29.7 in SW 2.9 mph 5 mph 89.7% 0 in 0 W/m2
03:14 38.3 °F 35.6 °F 29.7 in SW 3.4 mph 5 mph 90% 0 in 0 W/m2
03:19 38.3 °F 35.6 °F 29.7 in WSW 3.9 mph 6 mph 90% 0 in 0 W/m2
03:24 38.3 °F 35.6 °F 29.7 in WSW 3.4 mph 6 mph 90% 0 in 0 W/m2
03:29 38.3 °F 35.6 °F 29.7 in WSW 2.9 mph 6 mph 90% 0 in 0 W/m2
03:34 38.3 °F 35.6 °F 29.7 in WSW 3.5 mph 6 mph 90% 0 in 0 W/m2
03:39 38.3 °F 35.6 °F 29.7 in WSW 3.7 mph 6 mph 90% 0 in 0 W/m2
03:44 38.3 °F 35.6 °F 29.7 in WSW 3.4 mph 6 mph 90% 0 in 0 W/m2
03:49 38.3 °F 35.6 °F 29.7 in WSW 3.1 mph 6 mph 90% 0 in 0 W/m2
03:54 38.3 °F 35.6 °F 29.7 in WSW 2.8 mph 6 mph 90% 0 in 0 W/m2
03:59 38.3 °F 35.6 °F 29.7 in WSW 2.7 mph 4 mph 90% 0 in 0 W/m2
04:04 38.3 °F 35.6 °F 29.7 in WSW 2.4 mph 5 mph 90% 0 in 0 W/m2
04:09 38.3 °F 35.6 °F 29.7 in WSW 4.2 mph 6 mph 90% 0 in 0 W/m2
04:14 38.1 °F 35.4 °F 29.7 in WSW 3.4 mph 6 mph 90% 0 in 0 W/m2
04:19 38.3 °F 35.6 °F 29.7 in West 3.2 mph 5 mph 90% 0 in 0 W/m2
04:24 38.3 °F 35.6 °F 29.7 in West 2.3 mph 5 mph 90% 0 in 0 W/m2
04:29 38.1 °F 35.4 °F 29.7 in West 2.3 mph 4 mph 90% 0 in 0 W/m2
04:34 38.1 °F 35.4 °F 29.7 in WNW 2 mph 4 mph 90% 0 in 0 W/m2
04:39 38.1 °F 35.4 °F 29.7 in WNW 2.1 mph 3.5 mph 90% 0 in 0 W/m2
04:44 38.1 °F 35.4 °F 29.7 in WNW 2.4 mph 4 mph 90% 0 in 0 W/m2
04:49 38.1 °F 35.4 °F 29.7 in WNW 1.7 mph 4 mph 90% 0 in 0 W/m2
04:54 38.1 °F 35.4 °F 29.7 in WNW 1.7 mph 3.5 mph 90% 0 in 0 W/m2
04:59 38.1 °F 35.4 °F 29.7 in West 1.6 mph 3 mph 90% 0 in 0 W/m2
05:04 38.1 °F 35.4 °F 29.7 in WSW 1.4 mph 3.5 mph 90% 0 in 0 W/m2
05:09 38.1 °F 35.4 °F 29.7 in SW 1.9 mph 3.5 mph 90% 0 in 0 W/m2
05:14 38.1 °F 35.4 °F 29.7 in SW 1.7 mph 4 mph 90% 0 in 0 W/m2
05:19 38.1 °F 35.4 °F 29.7 in SW 2.4 mph 4 mph 90% 0 in 0 W/m2
05:24 38.1 °F 35.4 °F 29.7 in SW 2.6 mph 5 mph 90% 0 in 0 W/m2
05:29 38.1 °F 35.4 °F 29.7 in SW 2.3 mph 5 mph 90% 0 in 0 W/m2
05:34 38.1 °F 35.4 °F 29.7 in SW 2.3 mph 5 mph 90% 0 in 0 W/m2
05:39 38.1 °F 35.4 °F 29.7 in SW 2.4 mph 5 mph 90% 0 in 0 W/m2
05:44 38.1 °F 35.4 °F 29.7 in SW 2.4 mph 4 mph 90% 0 in 0 W/m2
05:49 38.3 °F 35.6 °F 29.7 in WSW 2.3 mph 4 mph 90% 0 in 0 W/m2
05:54 38.3 °F 35.6 °F 29.7 in West 2.1 mph 4 mph 90% 0 in 0 W/m2
05:59 38.3 °F 35.6 °F 29.7 in West 2.1 mph 3.5 mph 90% 0 in 0 W/m2
06:04 38.3 °F 35.6 °F 29.7 in West 2.2 mph 3.5 mph 90% 0 in 0 W/m2
06:09 38.3 °F 35.6 °F 29.7 in WSW 2.6 mph 4 mph 90% 0 in 0 W/m2
06:14 38.3 °F 35.6 °F 29.7 in SW 1.7 mph 4 mph 90.2% 0 in 0 W/m2
06:19 38.3 °F 35.8 °F 29.7 in SW 1.6 mph 3.5 mph 90.8% 0 in 0 W/m2
06:24 38.1 °F 35.8 °F 29.8 in WSW 2 mph 3.5 mph 91% 0 in 0 W/m2
06:29 38.1 °F 35.8 °F 29.8 in SW 2.4 mph 3.5 mph 91% 0 in 0 W/m2
06:34 38.1 °F 35.8 °F 29.8 in SW 2.2 mph 4 mph 91% 0 in 0 W/m2
06:39 38.1 °F 35.8 °F 29.8 in SW 2.2 mph 4 mph 91% 0 in 0 W/m2
06:44 38.1 °F 35.8 °F 29.8 in SW 2.4 mph 4 mph 91% 0 in 0 W/m2
06:49 38.1 °F 35.8 °F 29.8 in SW 1.9 mph 4 mph 91% 0 in 0 W/m2
06:54 38.1 °F 35.8 °F 29.8 in SW 2.7 mph 5 mph 91% 0 in 0 W/m2
06:59 38.1 °F 35.8 °F 29.8 in SW 4 mph 5 mph 91% 0 in 0 W/m2
07:04 38.1 °F 35.8 °F 29.8 in SW 3 mph 5 mph 91% 0 in 0 W/m2
07:09 38.1 °F 35.8 °F 29.8 in SW 2.7 mph 5 mph 91% 0 in 0 W/m2
07:14 38.1 °F 35.8 °F 29.8 in SW 3 mph 4 mph 91% 0 in 0 W/m2
07:19 38.3 °F 35.8 °F 29.8 in SW 3.3 mph 6 mph 91% 0 in 0 W/m2
07:24 38.3 °F 36 °F 29.8 in SSW 3 mph 6 mph 91% 0 in 0 W/m2
07:29 38.3 °F 36 °F 29.8 in SW 2.2 mph 4 mph 91% 0 in 0 W/m2
07:34 38.3 °F 36 °F 29.8 in SW 2.7 mph 5 mph 91% 0 in 0 W/m2
07:39 38.3 °F 36 °F 29.8 in WSW 2.1 mph 5 mph 91% 0 in 0 W/m2
07:44 38.5 °F 36 °F 29.8 in West 1.9 mph 3.5 mph 91% 0 in 0 W/m2
07:49 38.5 °F 36 °F 29.8 in NW 1.2 mph 3.5 mph 91% 0 in 0 W/m2
07:54 38.5 °F 36.1 °F 29.8 in NW 1.1 mph 3 mph 91% 0 in 0 W/m2
07:59 38.5 °F 36.1 °F 29.8 in NW 0.6 mph 2.3 mph 91% 0 in 0 W/m2
08:04 38.5 °F 36.1 °F 29.8 in North 0.6 mph 2.3 mph 91% 0 in 0 W/m2
08:09 38.7 °F 36.1 °F 29.8 in North 1.3 mph 2.3 mph 91% 0 in 5 W/m2
08:14 38.7 °F 36.1 °F 29.8 in North 1.2 mph 2.3 mph 91% 0 in 7 W/m2
08:19 38.7 °F 36.1 °F 29.8 in NE 1.6 mph 3.5 mph 91% 0 in 11 W/m2
08:24 38.7 °F 36.1 °F 29.8 in ESE 1.3 mph 3.5 mph 91% 0 in 16 W/m2
08:29 38.7 °F 36.1 °F 29.8 in East 0.7 mph 3 mph 91% 0 in 16 W/m2
08:34 38.7 °F 36.3 °F 29.8 in East 1.4 mph 3.5 mph 91% 0 in 21 W/m2
08:39 38.7 °F 36.3 °F 29.8 in East 0.9 mph 3.5 mph 91% 0 in 26 W/m2
08:44 38.8 °F 36.3 °F 29.8 in ENE 0.6 mph 3.5 mph 91% 0 in 23 W/m2
08:49 38.8 °F 36.3 °F 29.8 in ENE 2.1 mph 3.5 mph 91% 0 in 21 W/m2
08:54 38.8 °F 36.5 °F 29.8 in ENE 0.8 mph 3 mph 91% 0 in 19 W/m2
08:59 38.8 °F 36.5 °F 29.8 in ENE 1.4 mph 3.5 mph 91% 0 in 35 W/m2
09:04 38.8 °F 36.5 °F 29.8 in ENE 1.3 mph 3.5 mph 91% 0 in 35 W/m2
09:09 38.8 °F 36.5 °F 29.8 in NE 2.4 mph 4 mph 91% 0 in 30 W/m2
09:14 39 °F 36.5 °F 29.8 in NNE 2.7 mph 4 mph 91% 0 in 32 W/m2
09:19 39 °F 36.7 °F 29.8 in North 3.7 mph 5 mph 91% 0 in 35 W/m2
09:24 39.2 °F 36.7 °F 29.8 in NNE 3.2 mph 6 mph 91% 0 in 39 W/m2
09:29 39.2 °F 36.9 °F 29.8 in NNE 3.7 mph 6 mph 91% 0 in 32 W/m2
09:34 39.2 °F 36.9 °F 29.8 in NE 3.3 mph 6 mph 91% 0 in 35 W/m2
09:39 39.4 °F 37 °F 29.8 in ENE 2.5 mph 5 mph 91% 0 in 32 W/m2
09:44 39.4 °F 37 °F 29.8 in ENE 2.9 mph 5 mph 91% 0 in 25 W/m2
09:49 39.4 °F 37 °F 29.8 in ENE 2.1 mph 5 mph 91% 0 in 26 W/m2
09:54 39.4 °F 37 °F 29.8 in ENE 2.8 mph 7 mph 91% 0 in 37 W/m2
09:59 39.6 °F 37 °F 29.8 in ENE 3.8 mph 7 mph 90.7% 0 in 39 W/m2
10:04 39.6 °F 36.9 °F 29.8 in ENE 4.2 mph 8 mph 90% 0 in 51 W/m2
10:09 39.6 °F 36.9 °F 29.8 in East 4.2 mph 8 mph 90% 0 in 63 W/m2
10:14 39.7 °F 37 °F 29.8 in East 4.9 mph 8.1 mph 90% 0 in 69 W/m2
10:19 39.7 °F 37 °F 29.8 in East 5.8 mph 8.1 mph 90.1% 0 in 91 W/m2
10:24 39.9 °F 37.4 °F 29.8 in East 6 mph 9.2 mph 90.7% 0 in 109 W/m2
10:29 40.1 °F 37.4 °F 29.8 in East 4.5 mph 9.2 mph 90% 0 in 98 W/m2
10:34 40.3 °F 37.6 °F 29.8 in ESE 5.5 mph 9.2 mph 90% 0 in 79 W/m2
10:39 40.3 °F 37.6 °F 29.8 in East 5.6 mph 9.2 mph 89.7% 0 in 84 W/m2
10:44 40.5 °F 37.6 °F 29.8 in East 6 mph 9 mph 89.2% 0 in 109 W/m2
10:49 40.8 °F 37.9 °F 29.8 in East 6.2 mph 9.2 mph 89.6% 0 in 114 W/m2
10:54 40.8 °F 37.9 °F 29.8 in ESE 7.5 mph 10.4 mph 89% 0 in 81 W/m2
10:59 40.8 °F 37.9 °F 29.8 in East 6.2 mph 10.4 mph 89% 0 in 65 W/m2
11:04 40.8 °F 37.9 °F 29.8 in ESE 5.9 mph 10.4 mph 89% 0 in 65 W/m2
11:09 40.8 °F 37.9 °F 29.8 in ESE 4.8 mph 10.4 mph 89% 0 in 56 W/m2
11:14 40.8 °F 37.9 °F 29.8 in East 3.5 mph 8 mph 89% 0 in 58 W/m2
11:19 41 °F 37.9 °F 29.8 in East 3.2 mph 6 mph 89% 0 in 69 W/m2
11:24 41.2 °F 38.1 °F 29.8 in ESE 1.7 mph 6 mph 89% 0 in 69 W/m2
11:29 41.2 °F 38.1 °F 29.8 in East 2.5 mph 6 mph 88.7% 0 in 79 W/m2
11:34 41.4 °F 37.9 °F 29.8 in East 3.8 mph 6 mph 88% 0 in 79 W/m2
11:39 41.4 °F 38.1 °F 29.8 in ESE 2.9 mph 6 mph 88% 0 in 67 W/m2
11:44 41.4 °F 38.1 °F 29.8 in ESE 1.7 mph 6 mph 88% 0 in 69 W/m2
11:49 41.4 °F 38.1 °F 29.8 in ESE 3 mph 5 mph 88% 0 in 81 W/m2
11:54 41.4 °F 38.1 °F 29.8 in ESE 3.7 mph 6 mph 88% 0 in 88 W/m2
11:59 41.4 °F 38.1 °F 29.8 in East 4.3 mph 7 mph 88% 0 in 79 W/m2
12:04 41.5 °F 38.1 °F 29.8 in East 5.4 mph 8.1 mph 88% 0 in 72 W/m2
12:09 41.5 °F 38.3 °F 29.8 in East 4.5 mph 8.1 mph 88% 0 in 67 W/m2
12:14 41.5 °F 38.3 °F 29.8 in East 3.9 mph 7 mph 88% 0 in 49 W/m2
12:19 41.5 °F 38.3 °F 29.8 in ENE 5 mph 9 mph 88% 0 in 40 W/m2
12:24 41.5 °F 38.3 °F 29.8 in East 5.9 mph 9.2 mph 88% 0 in 40 W/m2
12:29 41.5 °F 38.3 °F 29.8 in East 6.1 mph 10 mph 88% 0 in 40 W/m2
12:34 41.5 °F 38.3 °F 29.8 in East 7.1 mph 10.4 mph 88.1% 0 in 49 W/m2
12:39 41.5 °F 38.7 °F 29.8 in East 6.5 mph 10.4 mph 89% 0 in 49 W/m2
12:44 41.5 °F 38.7 °F 29.8 in East 5.2 mph 9 mph 89% 0 in 39 W/m2
12:49 41.5 °F 38.5 °F 29.8 in ENE 5.5 mph 10.4 mph 89% 0 in 26 W/m2
12:54 41.5 °F 38.5 °F 29.8 in ENE 4.8 mph 10 mph 89% 0 in 30 W/m2
12:59 41.5 °F 38.7 °F 29.8 in ENE 4.2 mph 10 mph 89.3% 0 in 30 W/m2
13:04 41.5 °F 38.7 °F 29.8 in ENE 7.9 mph 13 mph 89.4% 0 in 28 W/m2
13:09 41.4 °F 38.7 °F 29.8 in ENE 7.4 mph 13 mph 90% 0 in 28 W/m2
13:14 41.4 °F 38.7 °F 29.8 in ENE 7 mph 12 mph 90% 0 in 30 W/m2
13:19 41.4 °F 38.7 °F 29.8 in East 8.3 mph 14 mph 89.9% 0 in 30 W/m2
13:24 41.4 °F 38.3 °F 29.8 in East 7.8 mph 14 mph 89% 0 in 26 W/m2
13:29 41.4 °F 38.3 °F 29.8 in East 8.1 mph 13 mph 89% 0 in 28 W/m2
13:34 41.4 °F 38.1 °F 29.8 in East 8.1 mph 16 mph 88.3% 0 in 28 W/m2
13:39 41.4 °F 37.9 °F 29.8 in ENE 8.4 mph 16.1 mph 88% 0 in 33 W/m2
13:44 41.4 °F 37.9 °F 29.8 in ENE 8.2 mph 16 mph 87.5% 0 in 39 W/m2
13:49 41.4 °F 37.8 °F 29.8 in ENE 6.4 mph 15 mph 87.1% 0 in 39 W/m2
13:54 41.4 °F 37.9 °F 29.8 in ENE 6 mph 10 mph 87.8% 0 in 25 W/m2
13:59 41.2 °F 37.9 °F 29.8 in ENE 5.4 mph 9.2 mph 88% 0 in 19 W/m2
14:04 41.2 °F 37.9 °F 29.8 in East 7.8 mph 13 mph 88.5% 0 in 19 W/m2
14:09 41 °F 38.1 °F 29.8 in East 6.8 mph 13 mph 89% 0 in 12 W/m2
14:14 40.8 °F 37.9 °F 29.8 in East 6.5 mph 12 mph 89% 0 in 11 W/m2
14:19 40.8 °F 38.1 °F 29.8 in East 5.8 mph 10.4 mph 89.8% 0.01 in 11 W/m2
14:24 40.8 °F 38.1 °F 29.8 in ESE 5.2 mph 10 mph 90% 0.02 in 9 W/m2
14:29 40.6 °F 37.9 °F 29.8 in ESE 5.5 mph 10 mph 90% 0.02 in 11 W/m2
14:34 40.5 °F 38.1 °F 29.8 in ESE 5.3 mph 10.4 mph 90.7% 0.02 in 9 W/m2
14:39 40.3 °F 37.9 °F 29.8 in East 5.2 mph 8.1 mph 91% 0.03 in 9 W/m2
14:44 40.3 °F 37.8 °F 29.8 in East 5.4 mph 8.1 mph 91% 0.04 in 7 W/m2
14:49 40.1 °F 37.8 °F 29.8 in ESE 4 mph 8.1 mph 91% 0.05 in 7 W/m2
14:54 40.1 °F 37.8 °F 29.8 in East 3.9 mph 8.1 mph 91.2% 0.06 in 9 W/m2
14:59 39.9 °F 37.8 °F 29.8 in ENE 4.5 mph 8.1 mph 92% 0.07 in 9 W/m2
15:04 39.7 °F 37.8 °F 29.8 in East 3.6 mph 8 mph 92% 0.09 in 7 W/m2
15:09 39.7 °F 37.8 °F 29.8 in East 3.9 mph 7 mph 92% 0.09 in 5 W/m2
15:14 39.7 °F 37.6 °F 29.8 in East 4.3 mph 7 mph 92% 0.11 in 5 W/m2
15:19 39.7 °F 37.8 °F 29.7 in East 5.4 mph 11.5 mph 92.8% 0.13 in 7 W/m2
15:24 39.6 °F 37.8 °F 29.7 in East 6.5 mph 12 mph 93% 0.13 in 7 W/m2
15:29 39.6 °F 37.6 °F 29.7 in ENE 7.3 mph 12 mph 93% 0.13 in 7 W/m2
15:34 39.6 °F 37.6 °F 29.7 in ENE 7.4 mph 12 mph 93% 0.13 in 0 W/m2
15:39 39.6 °F 37.6 °F 29.7 in ENE 5.8 mph 13 mph 93.2% 0.13 in 0 W/m2
15:44 39.6 °F 37.9 °F 29.7 in ENE 7.5 mph 14 mph 94% 0.13 in 5 W/m2
15:49 39.6 °F 37.9 °F 29.7 in ENE 8.3 mph 13.8 mph 94% 0.13 in 5 W/m2
15:54 39.6 °F 37.9 °F 29.7 in East 7.6 mph 14 mph 94% 0.13 in 0 W/m2
15:59 39.6 °F 37.9 °F 29.7 in East 8.1 mph 14 mph 94% 0.13 in 0 W/m2
16:04 39.6 °F 37.9 °F 29.7 in ENE 10 mph 15 mph 94% 0.14 in 0 W/m2
16:09 39.4 °F 37.9 °F 29.7 in ENE 9 mph 15 mph 94% 0.14 in 0 W/m2
16:14 39.4 °F 37.8 °F 29.7 in ENE 8.6 mph 15 mph 94% 0.13 in 0 W/m2
16:19 39.4 °F 37.8 °F 29.7 in ENE 6.4 mph 14 mph 94% 0.13 in 0 W/m2
16:24 39.4 °F 37.8 °F 29.7 in ENE 8.3 mph 14 mph 94% 0.13 in 0 W/m2
16:29 39.4 °F 37.9 °F 29.7 in ENE 5.7 mph 14 mph 94.5% 0.12 in 0 W/m2
16:34 39.4 °F 38.1 °F 29.7 in ENE 4.5 mph 9 mph 95% 0.12 in 0 W/m2
16:39 39.4 °F 38.1 °F 29.7 in ENE 5.1 mph 9.2 mph 95% 0.11 in 0 W/m2
16:44 39.4 °F 38.1 °F 29.7 in ENE 5.6 mph 9.2 mph 95% 0.11 in 0 W/m2
16:49 39.4 °F 38.1 °F 29.7 in ENE 5.7 mph 10.4 mph 95% 0.11 in 0 W/m2
16:54 39.4 °F 38.1 °F 29.7 in ENE 5.2 mph 10.4 mph 95% 0.11 in 0 W/m2
16:59 39.4 °F 38.1 °F 29.7 in ENE 4.3 mph 10 mph 95% 0.11 in 0 W/m2
17:04 39.6 °F 38.1 °F 29.7 in ENE 4 mph 8.1 mph 95% 0.11 in 0 W/m2
17:09 39.6 °F 38.1 °F 29.7 in NE 2.7 mph 8 mph 95% 0.1 in 0 W/m2
17:14 39.6 °F 38.3 °F 29.7 in NE 1.2 mph 4 mph 95% 0.1 in 0 W/m2
17:19 39.6 °F 38.3 °F 29.7 in NNE 0.4 mph 3 mph 95% 0.1 in 0 W/m2
17:24 39.6 °F 38.3 °F 29.7 in NNE 0.6 mph 2.3 mph 95% 0.1 in 0 W/m2
17:29 39.6 °F 38.3 °F 29.7 in NNE 0.6 mph 2.3 mph 95% 0.09 in 0 W/m2
17:34 39.6 °F 38.3 °F 29.7 in NE 1.5 mph 3.5 mph 95% 0.1 in 0 W/m2
17:39 39.6 °F 38.3 °F 29.7 in NE 1.4 mph 3.5 mph 95% 0.1 in 0 W/m2
17:44 39.6 °F 38.3 °F 29.7 in NE 0.4 mph 3 mph 95% 0.11 in 0 W/m2
17:49 39.6 °F 38.1 °F 29.7 in NE 0.6 mph 2.3 mph 95% 0.1 in 0 W/m2
17:54 39.6 °F 38.1 °F 29.7 in NE 0.3 mph 2.3 mph 95% 0.1 in 0 W/m2
17:59 39.6 °F 38.1 °F 29.7 in NNW 1 mph 2.3 mph 95% 0.1 in 0 W/m2
18:04 39.4 °F 38.1 °F 29.7 in WNW 0.4 mph 2.3 mph 95% 0.1 in 0 W/m2
18:09 39.4 °F 38.1 °F 29.7 in WSW 2.5 mph 4 mph 95% 0.1 in 0 W/m2
18:14 39.6 °F 38.1 °F 29.7 in SW 3.7 mph 7 mph 95% 0.1 in 0 W/m2
18:19 39.6 °F 38.3 °F 29.7 in SW 3 mph 6.9 mph 95% 0.1 in 0 W/m2
18:24 39.6 °F 38.3 °F 29.7 in SSW 1.9 mph 7 mph 95% 0.1 in 0 W/m2
18:29 39.6 °F 38.1 °F 29.7 in SW 1.8 mph 3.5 mph 95% 0.1 in 0 W/m2
18:34 39.6 °F 38.1 °F 29.7 in WSW 1.9 mph 3.5 mph 95% 0.1 in 0 W/m2
18:39 39.6 °F 38.3 °F 29.7 in WSW 2 mph 4 mph 95% 0.09 in 0 W/m2
18:44 39.6 °F 38.3 °F 29.7 in SW 2.9 mph 5 mph 95% 0.09 in 0 W/m2
18:49 39.6 °F 38.3 °F 29.7 in WSW 2.1 mph 3.5 mph 95% 0.09 in 0 W/m2
18:54 39.6 °F 38.3 °F 29.7 in WSW 0.5 mph 2.3 mph 95% 0.09 in 0 W/m2
18:59 39.6 °F 38.3 °F 29.7 in West 1.2 mph 2.3 mph 95% 0.09 in 0 W/m2
19:04 39.6 °F 38.3 °F 29.7 in WNW 2.2 mph 3.5 mph 95% 0.09 in 0 W/m2
19:09 39.6 °F 38.3 °F 29.7 in WNW 1.4 mph 3 mph 95% 0.09 in 0 W/m2
19:14 39.6 °F 38.3 °F 29.7 in NNW 1.4 mph 2.3 mph 95% 0.08 in 0 W/m2
19:19 39.6 °F 38.3 °F 29.7 in WNW 2.1 mph 3.5 mph 95% 0.08 in 0 W/m2
19:24 39.6 °F 38.3 °F 29.6 in WNW 2.5 mph 4 mph 95% 0.08 in 0 W/m2
19:29 39.6 °F 38.3 °F 29.6 in WNW 3.2 mph 5 mph 95% 0.08 in 0 W/m2
19:34 39.6 °F 38.3 °F 29.6 in West 3.5 mph 5 mph 95% 0.07 in 0 W/m2
19:39 39.6 °F 38.3 °F 29.6 in West 2.9 mph 4 mph 95% 0.07 in 0 W/m2
19:44 39.6 °F 38.3 °F 29.6 in West 2.1 mph 4 mph 95% 0.07 in 0 W/m2
19:49 39.6 °F 38.1 °F 29.6 in WNW 2.3 mph 4 mph 95% 0.07 in 0 W/m2
19:54 39.6 °F 38.1 °F 29.6 in WNW 2.6 mph 4 mph 95% 0.07 in 0 W/m2
19:59 39.6 °F 38.3 °F 29.6 in NW 1.8 mph 4 mph 95.2% 0.07 in 0 W/m2
20:04 39.6 °F 38.3 °F 29.6 in WNW 2.4 mph 5 mph 95.2% 0.07 in 0 W/m2
20:09 39.6 °F 38.5 °F 29.6 in WNW 3.6 mph 5 mph 95.6% 0.07 in 0 W/m2
20:14 39.6 °F 38.5 °F 29.6 in West 3.4 mph 5 mph 95.8% 0.07 in 0 W/m2
20:19 39.6 °F 38.5 °F 29.6 in WSW 4 mph 7 mph 96% 0.07 in 0 W/m2
20:24 39.6 °F 38.5 °F 29.6 in WSW 5.5 mph 8.1 mph 96% 0.08 in 0 W/m2
20:29 39.6 °F 38.5 °F 29.6 in WSW 3.7 mph 7 mph 96% 0.08 in 0 W/m2
20:34 39.6 °F 38.5 °F 29.6 in West 2.2 mph 4 mph 96% 0.09 in 0 W/m2
20:39 39.6 °F 38.5 °F 29.6 in WNW 0.7 mph 4 mph 96% 0.1 in 0 W/m2
20:44 39.4 °F 38.5 °F 29.6 in NW 1.4 mph 3.5 mph 96% 0.1 in 0 W/m2
20:49 39.4 °F 38.5 °F 29.6 in NW 1.4 mph 3.5 mph 96% 0.1 in 0 W/m2
20:54 39.4 °F 38.5 °F 29.6 in WNW 1.6 mph 3.5 mph 96% 0.09 in 0 W/m2
20:59 39.6 °F 38.5 °F 29.6 in West 2.5 mph 4 mph 96% 0.09 in 0 W/m2
21:04 39.4 °F 38.5 °F 29.6 in West 3.1 mph 6 mph 96% 0.09 in 0 W/m2
21:09 39.6 °F 38.5 °F 29.6 in West 4.7 mph 8 mph 96% 0.08 in 0 W/m2
21:14 39.6 °F 38.5 °F 29.6 in West 4.9 mph 8.1 mph 96% 0.08 in 0 W/m2
21:19 39.6 °F 38.5 °F 29.6 in West 6.1 mph 9.2 mph 96% 0.08 in 0 W/m2
21:24 39.6 °F 38.5 °F 29.6 in West 6 mph 9.2 mph 96% 0.07 in 0 W/m2
21:29 39.6 °F 38.7 °F 29.6 in West 6.9 mph 11.5 mph 96% 0.07 in 0 W/m2
21:34 39.6 °F 38.7 °F 29.6 in WSW 5.1 mph 12 mph 96% 0.06 in 0 W/m2
21:39 39.6 °F 38.7 °F 29.6 in WSW 6.8 mph 10.4 mph 96% 0.06 in 0 W/m2
21:44 39.6 °F 38.7 °F 29.6 in West 8.1 mph 12 mph 96% 0.07 in 0 W/m2
21:49 39.6 °F 38.7 °F 29.6 in West 8.5 mph 12 mph 96% 0.09 in 0 W/m2
21:54 39.6 °F 38.7 °F 29.6 in West 6.9 mph 12 mph 96% 0.1 in 0 W/m2
21:59 39.6 °F 38.7 °F 29.6 in West 7.3 mph 12 mph 96% 0.11 in 0 W/m2
22:04 39.6 °F 38.7 °F 29.6 in West 8 mph 13 mph 96% 0.12 in 0 W/m2
22:09 39.6 °F 38.7 °F 29.6 in WNW 5.5 mph 11.5 mph 96% 0.13 in 0 W/m2
22:14 39.6 °F 38.7 °F 29.6 in WNW 5.5 mph 8.1 mph 96% 0.13 in 0 W/m2
22:19 39.6 °F 38.7 °F 29.6 in West 3.9 mph 8 mph 96% 0.14 in 0 W/m2
22:24 39.6 °F 38.7 °F 29.6 in West 4.8 mph 7 mph 96% 0.14 in 0 W/m2
22:29 39.6 °F 38.7 °F 29.6 in West 5.6 mph 9 mph 96% 0.14 in 0 W/m2
22:34 39.7 °F 38.7 °F 29.6 in West 6.6 mph 10.4 mph 96% 0.14 in 0 W/m2
22:39 39.7 °F 38.7 °F 29.6 in West 6.6 mph 10.4 mph 96% 0.13 in 0 W/m2
22:44 39.6 °F 38.7 °F 29.6 in WNW 7.3 mph 14 mph 96% 0.13 in 0 W/m2
22:49 39.6 °F 38.7 °F 29.6 in WNW 8.2 mph 14 mph 96% 0.1 in 0 W/m2
22:54 39.6 °F 38.7 °F 29.6 in WNW 9.1 mph 14 mph 96% 0.08 in 0 W/m2
22:59 39.6 °F 38.5 °F 29.6 in WNW 8.5 mph 13 mph 96% 0.06 in 0 W/m2
23:04 39.4 °F 38.5 °F 29.6 in WNW 9.1 mph 13 mph 96% 0.05 in 0 W/m2
23:09 39.4 °F 38.5 °F 29.6 in WNW 8.6 mph 13 mph 96% 0.04 in 0 W/m2
23:14 39.4 °F 38.5 °F 29.6 in WNW 8.8 mph 13 mph 96% 0.04 in 0 W/m2
23:19 39.4 °F 38.5 °F 29.6 in West 6.9 mph 13 mph 96% 0.02 in 0 W/m2
23:24 39.4 °F 38.5 °F 29.6 in West 6.8 mph 12 mph 96% 0.01 in 0 W/m2
23:29 39.4 °F 38.5 °F 29.6 in West 7.4 mph 12 mph 96% 0.01 in 0 W/m2
23:34 39.4 °F 38.5 °F 29.6 in West 7.1 mph 12 mph 96% 0 in 0 W/m2
23:39 39.4 °F 38.5 °F 29.6 in WNW 7.7 mph 13 mph 96% 0 in 0 W/m2
23:44 39.4 °F 38.5 °F 29.6 in West 7.1 mph 14 mph 96% 0 in 0 W/m2
23:49 39.4 °F 38.5 °F 29.6 in West 7.3 mph 14 mph 96% 0 in 0 W/m2
23:54 39.4 °F 38.5 °F 29.6 in WNW 7.5 mph 13 mph 96% 0 in 0 W/m2
23:59 39.4 °F 38.5 °F 29.6 in WNW 7.9 mph 13 mph 96% 0 in 0 W/m2
Stazione Meteorologica MeteoMincio Rivalta s/M (MN)
Con i complimenti di Weather Underground - 4 mb


METEO PILLOLE
Pressione atmosferica più alta sotto ai 750m di quota
Agata (261m) - Russia
Il 31 dicembre del 1968 l'anticiclone Siberiano spinse il livello di pressione fino a 1083.3 hPa.

Do NOT follow this link or you will be banned from the site!